KGAI

Montgomery County Airpark

Gaithersburg, Maryland, USA
METAR KGAI 212256Z AUTO VRB03KT 10SM FEW009 SCT110 24/23 A2988 RMK AO2 RAE03 SLP140 P0000 T02440233
Observed Flight Rules
Aug-21 @ 22:56 UTC (49 minutes ago) Visual Flight Rules
Wind Visibility Clouds
Variable at 3 knots 10 miles
  • Few at 900' AGL
  • Scattered at 11,000' AGL
Temperatures Readings Precipitation
Current 24°C / 75°F
Dewpoint 23°C / 73°F
Humidity 94%
Altimeter 29.88" Hg
Pressure 1014 hPa
Elevation 165
Current Rain 0.005
METAR KGAI 212256Z AUTO VRB03KT 10SM FEW009 SCT110 24/23 A2988 RMK AO2 RAE03 SLP140 P0000 T02440233
Observed Flight Rules
Aug-21 @ 22:56 UTC
(49 minutes ago)
VFR
Wind Visibility
Variable at 3 knots 10 miles
Clouds
  • Few at 900' AGL
  • Scattered at 11,000' AGL
Temperature Dewpoint
24°C / 75°F 23°C / 73°F
Humidity Altimeter Pressure
94% 29.88" Hg 1014 hPa
Current Rain
0.005